sensor_id;sensor_type;location;lat;lon;timestamp;P1;durP1;ratioP1;P2;durP2;ratioP2
21955;SDS011;11142;49.930;8.606;2023-12-29T00:00:11;3.47;;;2.30;;
21955;SDS011;11142;49.930;8.606;2023-12-29T00:02:41;4.70;;;3.10;;
21955;SDS011;11142;49.930;8.606;2023-12-29T00:05:11;3.30;;;2.42;;
21955;SDS011;11142;49.930;8.606;2023-12-29T00:07:39;3.90;;;2.58;;
21955;SDS011;11142;49.930;8.606;2023-12-29T00:10:07;4.30;;;2.75;;
21955;SDS011;11142;49.930;8.606;2023-12-29T00:12:36;3.80;;;2.45;;
21955;SDS011;11142;49.930;8.606;2023-12-29T00:15:05;3.00;;;2.28;;
21955;SDS011;11142;49.930;8.606;2023-12-29T00:17:33;4.75;;;2.90;;
21955;SDS011;11142;49.930;8.606;2023-12-29T00:20:05;4.43;;;3.13;;
21955;SDS011;11142;49.930;8.606;2023-12-29T00:22:37;3.42;;;2.50;;
21955;SDS011;11142;49.930;8.606;2023-12-29T00:25:06;4.88;;;2.40;;
21955;SDS011;11142;49.930;8.606;2023-12-29T00:27:35;4.07;;;2.72;;
21955;SDS011;11142;49.930;8.606;2023-12-29T00:30:04;4.57;;;2.88;;
21955;SDS011;11142;49.930;8.606;2023-12-29T00:32:34;3.58;;;2.80;;
21955;SDS011;11142;49.930;8.606;2023-12-29T00:35:02;4.63;;;2.72;;
21955;SDS011;11142;49.930;8.606;2023-12-29T00:37:31;5.32;;;2.72;;
21955;SDS011;11142;49.930;8.606;2023-12-29T00:40:01;5.18;;;2.65;;
21955;SDS011;11142;49.930;8.606;2023-12-29T00:42:32;6.55;;;2.80;;
21955;SDS011;11142;49.930;8.606;2023-12-29T00:45:00;5.20;;;2.70;;
21955;SDS011;11142;49.930;8.606;2023-12-29T00:47:29;4.50;;;2.60;;
21955;SDS011;11142;49.930;8.606;2023-12-29T00:49:57;5.43;;;3.00;;
21955;SDS011;11142;49.930;8.606;2023-12-29T00:52:26;7.47;;;2.78;;
21955;SDS011;11142;49.930;8.606;2023-12-29T00:55:05;5.10;;;3.55;;
21955;SDS011;11142;49.930;8.606;2023-12-29T00:57:35;3.15;;;2.45;;
21955;SDS011;11142;49.930;8.606;2023-12-29T01:00:05;4.50;;;2.58;;
21955;SDS011;11142;49.930;8.606;2023-12-29T01:02:38;6.05;;;3.10;;
21955;SDS011;11142;49.930;8.606;2023-12-29T01:05:07;4.07;;;2.60;;
21955;SDS011;11142;49.930;8.606;2023-12-29T01:07:35;6.25;;;3.08;;
21955;SDS011;11142;49.930;8.606;2023-12-29T01:10:07;5.22;;;3.13;;
21955;SDS011;11142;49.930;8.606;2023-12-29T01:12:38;6.75;;;3.20;;
21955;SDS011;11142;49.930;8.606;2023-12-29T01:15:06;4.45;;;2.70;;
21955;SDS011;11142;49.930;8.606;2023-12-29T01:17:36;4.25;;;2.70;;
21955;SDS011;11142;49.930;8.606;2023-12-29T01:20:05;5.72;;;3.00;;
21955;SDS011;11142;49.930;8.606;2023-12-29T01:22:34;4.22;;;2.55;;
21955;SDS011;11142;49.930;8.606;2023-12-29T01:25:08;6.68;;;3.50;;
21955;SDS011;11142;49.930;8.606;2023-12-29T01:27:36;6.35;;;4.05;;
21955;SDS011;11142;49.930;8.606;2023-12-29T01:30:07;4.28;;;2.80;;
21955;SDS011;11142;49.930;8.606;2023-12-29T01:32:36;5.32;;;3.00;;
21955;SDS011;11142;49.930;8.606;2023-12-29T01:35:06;3.63;;;2.90;;
21955;SDS011;11142;49.930;8.606;2023-12-29T01:37:35;4.65;;;2.60;;
21955;SDS011;11142;49.930;8.606;2023-12-29T01:40:05;4.18;;;2.92;;
21955;SDS011;11142;49.930;8.606;2023-12-29T01:42:36;4.35;;;2.42;;
21955;SDS011;11142;49.930;8.606;2023-12-29T01:45:06;2.97;;;2.17;;
21955;SDS011;11142;49.930;8.606;2023-12-29T01:47:48;4.13;;;1.85;;
21955;SDS011;11142;49.930;8.606;2023-12-29T01:50:19;3.78;;;2.33;;
21955;SDS011;11142;49.930;8.606;2023-12-29T01:52:50;5.22;;;2.28;;
21955;SDS011;11142;49.930;8.606;2023-12-29T01:55:21;4.00;;;2.00;;
21955;SDS011;11142;49.930;8.606;2023-12-29T01:57:55;4.07;;;2.60;;
21955;SDS011;11142;49.930;8.606;2023-12-29T02:00:24;5.20;;;2.90;;
21955;SDS011;11142;49.930;8.606;2023-12-29T02:02:55;8.13;;;2.70;;
21955;SDS011;11142;49.930;8.606;2023-12-29T02:05:24;4.47;;;2.67;;
21955;SDS011;11142;49.930;8.606;2023-12-29T02:07:58;3.70;;;2.53;;
21955;SDS011;11142;49.930;8.606;2023-12-29T02:10:32;3.10;;;2.17;;
21955;SDS011;11142;49.930;8.606;2023-12-29T02:13:03;3.47;;;2.40;;
21955;SDS011;11142;49.930;8.606;2023-12-29T02:15:32;3.78;;;2.28;;
21955;SDS011;11142;49.930;8.606;2023-12-29T02:18:01;2.85;;;2.03;;
21955;SDS011;11142;49.930;8.606;2023-12-29T02:20:32;6.05;;;2.63;;
21955;SDS011;11142;49.930;8.606;2023-12-29T02:23:03;3.30;;;2.05;;
21955;SDS011;11142;49.930;8.606;2023-12-29T02:25:33;4.93;;;2.53;;
21955;SDS011;11142;49.930;8.606;2023-12-29T02:28:03;3.78;;;2.10;;
21955;SDS011;11142;49.930;8.606;2023-12-29T02:30:41;3.95;;;2.22;;
21955;SDS011;11142;49.930;8.606;2023-12-29T02:33:14;4.43;;;2.33;;
21955;SDS011;11142;49.930;8.606;2023-12-29T02:35:48;4.03;;;2.20;;
21955;SDS011;11142;49.930;8.606;2023-12-29T02:38:20;3.95;;;2.30;;
21955;SDS011;11142;49.930;8.606;2023-12-29T02:40:51;3.28;;;2.20;;
21955;SDS011;11142;49.930;8.606;2023-12-29T02:43:21;4.95;;;1.98;;
21955;SDS011;11142;49.930;8.606;2023-12-29T02:45:50;6.13;;;2.42;;
21955;SDS011;11142;49.930;8.606;2023-12-29T02:48:21;3.33;;;1.90;;
21955;SDS011;11142;49.930;8.606;2023-12-29T02:50:52;3.30;;;2.28;;
21955;SDS011;11142;49.930;8.606;2023-12-29T02:53:20;4.03;;;2.83;;
21955;SDS011;11142;49.930;8.606;2023-12-29T02:55:48;6.32;;;2.47;;
21955;SDS011;11142;49.930;8.606;2023-12-29T02:58:18;4.35;;;2.67;;
21955;SDS011;11142;49.930;8.606;2023-12-29T03:00:47;3.90;;;2.67;;
21955;SDS011;11142;49.930;8.606;2023-12-29T03:03:15;4.07;;;2.40;;
21955;SDS011;11142;49.930;8.606;2023-12-29T03:05:43;4.10;;;2.70;;
21955;SDS011;11142;49.930;8.606;2023-12-29T03:08:12;3.60;;;2.28;;
21955;SDS011;11142;49.930;8.606;2023-12-29T03:10:40;6.88;;;3.03;;
21955;SDS011;11142;49.930;8.606;2023-12-29T03:13:08;4.30;;;2.58;;
21955;SDS011;11142;49.930;8.606;2023-12-29T03:15:37;3.25;;;2.55;;
21955;SDS011;11142;49.930;8.606;2023-12-29T03:18:06;4.53;;;2.65;;
21955;SDS011;11142;49.930;8.606;2023-12-29T03:20:36;4.45;;;2.42;;
21955;SDS011;11142;49.930;8.606;2023-12-29T03:23:06;6.32;;;2.75;;
21955;SDS011;11142;49.930;8.606;2023-12-29T03:25:36;5.20;;;2.35;;
21955;SDS011;11142;49.930;8.606;2023-12-29T03:28:04;4.55;;;2.50;;
21955;SDS011;11142;49.930;8.606;2023-12-29T03:30:33;2.78;;;1.88;;
21955;SDS011;11142;49.930;8.606;2023-12-29T03:33:06;2.20;;;1.83;;
21955;SDS011;11142;49.930;8.606;2023-12-29T03:35:34;4.78;;;2.20;;
21955;SDS011;11142;49.930;8.606;2023-12-29T03:38:04;4.22;;;2.15;;
21955;SDS011;11142;49.930;8.606;2023-12-29T03:40:36;2.35;;;1.80;;
21955;SDS011;11142;49.930;8.606;2023-12-29T03:43:04;2.63;;;2.10;;
21955;SDS011;11142;49.930;8.606;2023-12-29T03:45:32;2.60;;;2.00;;
21955;SDS011;11142;49.930;8.606;2023-12-29T03:48:00;3.28;;;2.13;;
21955;SDS011;11142;49.930;8.606;2023-12-29T03:50:32;4.97;;;2.72;;
21955;SDS011;11142;49.930;8.606;2023-12-29T03:53:01;3.47;;;2.13;;
21955;SDS011;11142;49.930;8.606;2023-12-29T03:55:29;3.13;;;2.35;;
21955;SDS011;11142;49.930;8.606;2023-12-29T03:57:57;6.32;;;2.42;;
21955;SDS011;11142;49.930;8.606;2023-12-29T04:00:26;3.47;;;2.33;;
21955;SDS011;11142;49.930;8.606;2023-12-29T04:02:55;3.35;;;2.10;;
21955;SDS011;11142;49.930;8.606;2023-12-29T04:05:23;4.38;;;1.60;;
21955;SDS011;11142;49.930;8.606;2023-12-29T04:07:54;2.90;;;2.00;;
21955;SDS011;11142;49.930;8.606;2023-12-29T04:10:23;4.45;;;2.35;;
21955;SDS011;11142;49.930;8.606;2023-12-29T04:12:51;2.90;;;1.92;;
21955;SDS011;11142;49.930;8.606;2023-12-29T04:15:19;4.63;;;1.80;;
21955;SDS011;11142;49.930;8.606;2023-12-29T04:17:48;3.65;;;1.90;;
21955;SDS011;11142;49.930;8.606;2023-12-29T04:20:16;2.78;;;1.90;;
21955;SDS011;11142;49.930;8.606;2023-12-29T04:22:47;3.10;;;1.73;;
21955;SDS011;11142;49.930;8.606;2023-12-29T04:25:16;4.47;;;1.92;;
21955;SDS011;11142;49.930;8.606;2023-12-29T04:27:45;4.38;;;1.95;;
21955;SDS011;11142;49.930;8.606;2023-12-29T04:30:13;2.58;;;1.75;;
21955;SDS011;11142;49.930;8.606;2023-12-29T04:32:40;4.00;;;1.58;;
21955;SDS011;11142;49.930;8.606;2023-12-29T04:35:10;3.90;;;1.73;;
21955;SDS011;11142;49.930;8.606;2023-12-29T04:37:42;4.05;;;1.80;;
21955;SDS011;11142;49.930;8.606;2023-12-29T04:40:12;7.90;;;1.90;;
21955;SDS011;11142;49.930;8.606;2023-12-29T04:42:41;5.25;;;1.90;;
21955;SDS011;11142;49.930;8.606;2023-12-29T04:45:10;2.97;;;1.90;;
21955;SDS011;11142;49.930;8.606;2023-12-29T04:47:39;1.98;;;1.55;;
21955;SDS011;11142;49.930;8.606;2023-12-29T04:50:15;3.97;;;2.03;;
21955;SDS011;11142;49.930;8.606;2023-12-29T04:52:43;4.00;;;1.90;;
21955;SDS011;11142;49.930;8.606;2023-12-29T04:55:11;3.15;;;1.83;;
21955;SDS011;11142;49.930;8.606;2023-12-29T04:57:40;3.33;;;1.98;;
21955;SDS011;11142;49.930;8.606;2023-12-29T05:00:09;2.90;;;1.73;;
21955;SDS011;11142;49.930;8.606;2023-12-29T05:02:41;3.50;;;2.00;;
21955;SDS011;11142;49.930;8.606;2023-12-29T05:05:09;5.05;;;2.35;;
21955;SDS011;11142;49.930;8.606;2023-12-29T05:07:38;2.92;;;2.00;;
21955;SDS011;11142;49.930;8.606;2023-12-29T05:10:06;2.83;;;1.85;;
21955;SDS011;11142;49.930;8.606;2023-12-29T05:12:35;3.42;;;1.70;;
21955;SDS011;11142;49.930;8.606;2023-12-29T05:15:08;2.45;;;1.85;;
21955;SDS011;11142;49.930;8.606;2023-12-29T05:17:37;4.32;;;2.20;;
21955;SDS011;11142;49.930;8.606;2023-12-29T05:20:07;3.00;;;1.73;;
21955;SDS011;11142;49.930;8.606;2023-12-29T05:22:38;1.75;;;1.38;;
21955;SDS011;11142;49.930;8.606;2023-12-29T05:25:06;3.92;;;1.85;;
21955;SDS011;11142;49.930;8.606;2023-12-29T05:27:35;5.38;;;2.00;;
21955;SDS011;11142;49.930;8.606;2023-12-29T05:30:08;2.17;;;1.55;;
21955;SDS011;11142;49.930;8.606;2023-12-29T05:32:37;6.20;;;1.87;;
21955;SDS011;11142;49.930;8.606;2023-12-29T05:35:07;2.85;;;1.90;;
21955;SDS011;11142;49.930;8.606;2023-12-29T05:37:36;5.40;;;1.98;;
21955;SDS011;11142;49.930;8.606;2023-12-29T05:40:05;4.85;;;1.90;;
21955;SDS011;11142;49.930;8.606;2023-12-29T05:42:35;5.78;;;1.90;;
21955;SDS011;11142;49.930;8.606;2023-12-29T05:45:03;5.40;;;1.88;;
21955;SDS011;11142;49.930;8.606;2023-12-29T05:47:36;3.58;;;2.05;;
21955;SDS011;11142;49.930;8.606;2023-12-29T05:50:06;2.95;;;1.67;;
21955;SDS011;11142;49.930;8.606;2023-12-29T05:52:38;4.30;;;1.60;;
21955;SDS011;11142;49.930;8.606;2023-12-29T05:55:06;3.30;;;1.67;;
21955;SDS011;11142;49.930;8.606;2023-12-29T05:57:35;2.28;;;1.60;;
21955;SDS011;11142;49.930;8.606;2023-12-29T06:00:03;2.95;;;1.63;;
21955;SDS011;11142;49.930;8.606;2023-12-29T06:02:38;4.30;;;1.83;;
21955;SDS011;11142;49.930;8.606;2023-12-29T06:05:10;2.08;;;1.80;;
21955;SDS011;11142;49.930;8.606;2023-12-29T06:07:39;3.17;;;1.98;;
21955;SDS011;11142;49.930;8.606;2023-12-29T06:10:08;2.45;;;1.70;;
21955;SDS011;11142;49.930;8.606;2023-12-29T06:12:37;3.53;;;1.90;;
21955;SDS011;11142;49.930;8.606;2023-12-29T06:15:07;4.10;;;1.92;;
21955;SDS011;11142;49.930;8.606;2023-12-29T06:17:40;2.78;;;1.23;;
21955;SDS011;11142;49.930;8.606;2023-12-29T06:20:10;3.22;;;1.95;;
21955;SDS011;11142;49.930;8.606;2023-12-29T06:22:41;2.42;;;1.88;;
21955;SDS011;11142;49.930;8.606;2023-12-29T06:25:11;4.65;;;1.83;;
21955;SDS011;11142;49.930;8.606;2023-12-29T06:27:40;3.30;;;1.80;;
21955;SDS011;11142;49.930;8.606;2023-12-29T06:30:09;3.58;;;2.20;;
21955;SDS011;11142;49.930;8.606;2023-12-29T06:32:38;3.90;;;2.15;;
21955;SDS011;11142;49.930;8.606;2023-12-29T06:35:08;2.10;;;1.80;;
21955;SDS011;11142;49.930;8.606;2023-12-29T06:37:37;2.53;;;1.80;;
21955;SDS011;11142;49.930;8.606;2023-12-29T06:40:08;2.75;;;1.63;;
21955;SDS011;11142;49.930;8.606;2023-12-29T06:42:37;3.85;;;1.90;;
21955;SDS011;11142;49.930;8.606;2023-12-29T06:45:05;2.55;;;1.80;;
21955;SDS011;11142;49.930;8.606;2023-12-29T06:47:38;3.00;;;2.10;;
21955;SDS011;11142;49.930;8.606;2023-12-29T06:50:10;3.88;;;2.00;;
21955;SDS011;11142;49.930;8.606;2023-12-29T06:52:39;2.78;;;1.70;;
21955;SDS011;11142;49.930;8.606;2023-12-29T06:55:08;7.03;;;1.80;;
21955;SDS011;11142;49.930;8.606;2023-12-29T06:57:36;3.00;;;1.80;;
21955;SDS011;11142;49.930;8.606;2023-12-29T07:00:05;6.30;;;2.28;;
21955;SDS011;11142;49.930;8.606;2023-12-29T07:02:36;3.97;;;1.77;;
21955;SDS011;11142;49.930;8.606;2023-12-29T07:05:08;2.67;;;1.90;;
21955;SDS011;11142;49.930;8.606;2023-12-29T07:07:39;3.03;;;1.80;;
21955;SDS011;11142;49.930;8.606;2023-12-29T07:10:07;3.92;;;2.00;;
21955;SDS011;11142;49.930;8.606;2023-12-29T07:12:36;2.70;;;1.70;;
21955;SDS011;11142;49.930;8.606;2023-12-29T07:15:05;4.93;;;1.75;;
21955;SDS011;11142;49.930;8.606;2023-12-29T07:17:36;1.80;;;1.42;;
21955;SDS011;11142;49.930;8.606;2023-12-29T07:20:05;3.25;;;1.90;;
21955;SDS011;11142;49.930;8.606;2023-12-29T07:22:35;2.40;;;1.65;;
21955;SDS011;11142;49.930;8.606;2023-12-29T07:25:05;2.67;;;1.60;;
21955;SDS011;11142;49.930;8.606;2023-12-29T07:27:33;8.85;;;3.17;;
21955;SDS011;11142;49.930;8.606;2023-12-29T07:30:02;2.45;;;1.48;;
21955;SDS011;11142;49.930;8.606;2023-12-29T07:32:33;2.10;;;1.75;;
21955;SDS011;11142;49.930;8.606;2023-12-29T07:35:01;1.77;;;1.55;;
21955;SDS011;11142;49.930;8.606;2023-12-29T07:37:29;4.65;;;1.77;;
21955;SDS011;11142;49.930;8.606;2023-12-29T07:39:57;1.35;;;1.25;;
21955;SDS011;11142;49.930;8.606;2023-12-29T07:42:27;2.95;;;1.38;;
21955;SDS011;11142;49.930;8.606;2023-12-29T07:44:56;2.63;;;1.63;;
21955;SDS011;11142;49.930;8.606;2023-12-29T07:47:25;2.17;;;1.45;;
21955;SDS011;11142;49.930;8.606;2023-12-29T07:49:53;2.05;;;1.35;;
21955;SDS011;11142;49.930;8.606;2023-12-29T07:52:22;2.08;;;1.52;;
21955;SDS011;11142;49.930;8.606;2023-12-29T07:54:50;1.70;;;1.42;;
21955;SDS011;11142;49.930;8.606;2023-12-29T07:57:19;3.10;;;1.60;;
21955;SDS011;11142;49.930;8.606;2023-12-29T07:59:50;3.20;;;1.30;;
21955;SDS011;11142;49.930;8.606;2023-12-29T08:02:20;1.27;;;1.17;;
21955;SDS011;11142;49.930;8.606;2023-12-29T08:04:48;3.08;;;1.30;;
21955;SDS011;11142;49.930;8.606;2023-12-29T08:07:18;3.58;;;1.38;;
21955;SDS011;11142;49.930;8.606;2023-12-29T08:09:48;1.65;;;1.27;;
21955;SDS011;11142;49.930;8.606;2023-12-29T08:12:16;3.33;;;1.27;;
21955;SDS011;11142;49.930;8.606;2023-12-29T08:14:45;1.65;;;1.02;;
21955;SDS011;11142;49.930;8.606;2023-12-29T08:17:14;6.38;;;1.55;;
21955;SDS011;11142;49.930;8.606;2023-12-29T08:19:43;4.55;;;1.45;;
21955;SDS011;11142;49.930;8.606;2023-12-29T08:22:12;2.05;;;1.48;;
21955;SDS011;11142;49.930;8.606;2023-12-29T08:24:40;2.78;;;1.42;;
21955;SDS011;11142;49.930;8.606;2023-12-29T08:27:11;8.07;;;1.67;;
21955;SDS011;11142;49.930;8.606;2023-12-29T08:29:40;2.30;;;1.30;;
21955;SDS011;11142;49.930;8.606;2023-12-29T08:32:23;4.82;;;1.90;;
21955;SDS011;11142;49.930;8.606;2023-12-29T08:34:52;4.22;;;1.38;;
21955;SDS011;11142;49.930;8.606;2023-12-29T08:37:21;1.95;;;1.35;;
21955;SDS011;11142;49.930;8.606;2023-12-29T08:39:52;4.20;;;1.30;;
21955;SDS011;11142;49.930;8.606;2023-12-29T08:42:21;3.92;;;1.40;;
21955;SDS011;11142;49.930;8.606;2023-12-29T08:44:50;1.55;;;1.20;;
21955;SDS011;11142;49.930;8.606;2023-12-29T08:47:20;2.38;;;1.13;;
21955;SDS011;11142;49.930;8.606;2023-12-29T08:49:50;4.63;;;1.10;;
21955;SDS011;11142;49.930;8.606;2023-12-29T08:52:23;1.73;;;1.30;;
21955;SDS011;11142;49.930;8.606;2023-12-29T08:54:54;3.13;;;1.70;;
21955;SDS011;11142;49.930;8.606;2023-12-29T08:57:23;2.63;;;1.30;;
21955;SDS011;11142;49.930;8.606;2023-12-29T08:59:54;3.58;;;1.60;;
21955;SDS011;11142;49.930;8.606;2023-12-29T09:02:24;3.70;;;1.27;;
21955;SDS011;11142;49.930;8.606;2023-12-29T09:04:54;2.90;;;1.15;;
21955;SDS011;11142;49.930;8.606;2023-12-29T09:07:22;6.57;;;1.48;;
21955;SDS011;11142;49.930;8.606;2023-12-29T09:09:50;3.67;;;1.17;;
21955;SDS011;11142;49.930;8.606;2023-12-29T09:12:19;3.70;;;1.30;;
21955;SDS011;11142;49.930;8.606;2023-12-29T09:14:47;3.58;;;1.23;;
21955;SDS011;11142;49.930;8.606;2023-12-29T09:17:18;2.97;;;1.50;;
21955;SDS011;11142;49.930;8.606;2023-12-29T09:19:47;2.90;;;1.25;;
21955;SDS011;11142;49.930;8.606;2023-12-29T09:22:34;2.35;;;1.08;;
21955;SDS011;11142;49.930;8.606;2023-12-29T09:25:04;1.95;;;0.93;;
21955;SDS011;11142;49.930;8.606;2023-12-29T09:27:33;4.85;;;1.63;;
21955;SDS011;11142;49.930;8.606;2023-12-29T09:30:03;1.48;;;1.02;;
21955;SDS011;11142;49.930;8.606;2023-12-29T09:32:32;1.30;;;1.13;;
21955;SDS011;11142;49.930;8.606;2023-12-29T09:35:01;1.67;;;1.13;;
21955;SDS011;11142;49.930;8.606;2023-12-29T09:37:31;3.25;;;1.75;;
21955;SDS011;11142;49.930;8.606;2023-12-29T09:40:01;3.40;;;1.35;;
21955;SDS011;11142;49.930;8.606;2023-12-29T09:42:30;3.65;;;1.40;;
21955;SDS011;11142;49.930;8.606;2023-12-29T09:44:59;4.07;;;1.25;;
21955;SDS011;11142;49.930;8.606;2023-12-29T09:47:36;2.85;;;1.80;;
21955;SDS011;11142;49.930;8.606;2023-12-29T09:50:07;3.78;;;1.50;;
21955;SDS011;11142;49.930;8.606;2023-12-29T09:55:13;3.80;;;1.40;;
21955;SDS011;11142;49.930;8.606;2023-12-29T09:57:46;2.75;;;1.38;;
21955;SDS011;11142;49.930;8.606;2023-12-29T10:00:19;3.97;;;1.30;;
21955;SDS011;11142;49.930;8.606;2023-12-29T10:02:50;3.38;;;1.60;;
21955;SDS011;11142;49.930;8.606;2023-12-29T10:05:19;3.80;;;2.00;;
21955;SDS011;11142;49.930;8.606;2023-12-29T10:07:48;5.45;;;3.20;;
21955;SDS011;11142;49.930;8.606;2023-12-29T10:10:19;3.92;;;1.17;;
21955;SDS011;11142;49.930;8.606;2023-12-29T10:12:51;3.45;;;1.50;;
21955;SDS011;11142;49.930;8.606;2023-12-29T10:15:22;2.08;;;1.38;;
21955;SDS011;11142;49.930;8.606;2023-12-29T10:18:00;2.55;;;1.25;;
21955;SDS011;11142;49.930;8.606;2023-12-29T10:20:40;2.38;;;1.50;;
21955;SDS011;11142;49.930;8.606;2023-12-29T10:23:18;2.63;;;1.23;;
21955;SDS011;11142;49.930;8.606;2023-12-29T10:28:20;1.75;;;1.20;;
21955;SDS011;11142;49.930;8.606;2023-12-29T10:30:49;2.97;;;1.30;;
21955;SDS011;11142;49.930;8.606;2023-12-29T10:33:21;1.92;;;1.40;;
21955;SDS011;11142;49.930;8.606;2023-12-29T10:35:56;2.20;;;0.93;;
21955;SDS011;11142;49.930;8.606;2023-12-29T10:38:30;2.15;;;1.13;;
21955;SDS011;11142;49.930;8.606;2023-12-29T10:41:12;2.15;;;1.27;;
21955;SDS011;11142;49.930;8.606;2023-12-29T10:43:42;7.88;;;1.25;;
21955;SDS011;11142;49.930;8.606;2023-12-29T10:46:14;4.35;;;1.40;;
21955;SDS011;11142;49.930;8.606;2023-12-29T10:48:43;5.22;;;1.33;;
21955;SDS011;11142;49.930;8.606;2023-12-29T10:51:11;2.53;;;1.23;;
21955;SDS011;11142;49.930;8.606;2023-12-29T10:53:39;5.82;;;1.20;;
21955;SDS011;11142;49.930;8.606;2023-12-29T10:56:18;1.42;;;1.05;;
21955;SDS011;11142;49.930;8.606;2023-12-29T10:58:56;2.20;;;0.90;;
21955;SDS011;11142;49.930;8.606;2023-12-29T11:01:26;2.22;;;1.08;;
21955;SDS011;11142;49.930;8.606;2023-12-29T11:03:58;1.15;;;0.90;;
21955;SDS011;11142;49.930;8.606;2023-12-29T11:06:27;2.75;;;1.20;;
21955;SDS011;11142;49.930;8.606;2023-12-29T11:08:56;2.53;;;1.20;;
21955;SDS011;11142;49.930;8.606;2023-12-29T11:11:26;2.47;;;1.13;;
21955;SDS011;11142;49.930;8.606;2023-12-29T11:13:56;3.58;;;0.95;;
21955;SDS011;11142;49.930;8.606;2023-12-29T11:16:24;1.70;;;0.90;;
21955;SDS011;11142;49.930;8.606;2023-12-29T11:18:55;2.33;;;1.23;;
21955;SDS011;11142;49.930;8.606;2023-12-29T11:21:26;2.50;;;1.17;;
21955;SDS011;11142;49.930;8.606;2023-12-29T11:23:55;4.32;;;0.90;;
21955;SDS011;11142;49.930;8.606;2023-12-29T11:29:19;3.33;;;1.02;;
21955;SDS011;11142;49.930;8.606;2023-12-29T11:31:48;4.40;;;1.10;;
21955;SDS011;11142;49.930;8.606;2023-12-29T11:34:20;1.30;;;0.95;;
21955;SDS011;11142;49.930;8.606;2023-12-29T11:37:03;3.58;;;0.93;;
21955;SDS011;11142;49.930;8.606;2023-12-29T11:39:43;1.85;;;1.10;;
21955;SDS011;11142;49.930;8.606;2023-12-29T11:42:21;2.75;;;1.40;;
21955;SDS011;11142;49.930;8.606;2023-12-29T11:45:03;1.42;;;0.90;;
21955;SDS011;11142;49.930;8.606;2023-12-29T11:47:59;4.38;;;1.30;;
21955;SDS011;11142;49.930;8.606;2023-12-29T11:50:31;3.03;;;1.10;;
21955;SDS011;11142;49.930;8.606;2023-12-29T11:53:02;3.70;;;1.08;;
21955;SDS011;11142;49.930;8.606;2023-12-29T11:55:34;1.63;;;1.50;;
21955;SDS011;11142;49.930;8.606;2023-12-29T12:00:56;1.85;;;1.08;;
21955;SDS011;11142;49.930;8.606;2023-12-29T12:03:26;3.88;;;1.20;;
21955;SDS011;11142;49.930;8.606;2023-12-29T12:05:55;3.72;;;1.15;;
21955;SDS011;11142;49.930;8.606;2023-12-29T12:08:29;4.05;;;1.40;;
21955;SDS011;11142;49.930;8.606;2023-12-29T12:14:07;3.03;;;1.20;;
21955;SDS011;11142;49.930;8.606;2023-12-29T12:19:20;1.15;;;0.95;;
21955;SDS011;11142;49.930;8.606;2023-12-29T12:21:53;1.63;;;0.80;;
21955;SDS011;11142;49.930;8.606;2023-12-29T12:24:23;3.03;;;0.95;;
21955;SDS011;11142;49.930;8.606;2023-12-29T12:26:52;4.72;;;1.23;;
21955;SDS011;11142;49.930;8.606;2023-12-29T12:29:24;1.95;;;1.05;;
21955;SDS011;11142;49.930;8.606;2023-12-29T12:31:54;2.20;;;1.02;;
21955;SDS011;11142;49.930;8.606;2023-12-29T12:34:24;3.00;;;1.42;;
21955;SDS011;11142;49.930;8.606;2023-12-29T12:36:54;2.95;;;0.95;;
21955;SDS011;11142;49.930;8.606;2023-12-29T12:39:28;4.20;;;1.20;;
21955;SDS011;11142;49.930;8.606;2023-12-29T12:42:07;5.55;;;1.33;;
21955;SDS011;11142;49.930;8.606;2023-12-29T12:44:37;2.28;;;1.38;;
21955;SDS011;11142;49.930;8.606;2023-12-29T12:47:08;2.47;;;1.27;;
21955;SDS011;11142;49.930;8.606;2023-12-29T12:49:44;5.22;;;1.20;;
21955;SDS011;11142;49.930;8.606;2023-12-29T12:52:14;2.25;;;1.23;;
21955;SDS011;11142;49.930;8.606;2023-12-29T12:54:43;1.05;;;0.88;;
21955;SDS011;11142;49.930;8.606;2023-12-29T12:57:13;2.03;;;1.00;;
21955;SDS011;11142;49.930;8.606;2023-12-29T12:59:46;2.50;;;0.90;;
21955;SDS011;11142;49.930;8.606;2023-12-29T13:02:19;2.55;;;1.05;;
21955;SDS011;11142;49.930;8.606;2023-12-29T13:04:49;1.38;;;0.73;;
21955;SDS011;11142;49.930;8.606;2023-12-29T13:07:20;1.48;;;1.00;;
21955;SDS011;11142;49.930;8.606;2023-12-29T13:09:49;1.95;;;1.00;;
21955;SDS011;11142;49.930;8.606;2023-12-29T13:12:18;1.50;;;0.95;;
21955;SDS011;11142;49.930;8.606;2023-12-29T13:14:50;3.33;;;1.25;;
21955;SDS011;11142;49.930;8.606;2023-12-29T13:17:22;4.50;;;1.27;;
21955;SDS011;11142;49.930;8.606;2023-12-29T13:19:55;1.50;;;0.80;;
21955;SDS011;11142;49.930;8.606;2023-12-29T13:22:25;2.45;;;0.90;;
21955;SDS011;11142;49.930;8.606;2023-12-29T13:24:56;1.75;;;1.10;;
21955;SDS011;11142;49.930;8.606;2023-12-29T13:27:24;4.45;;;1.05;;
21955;SDS011;11142;49.930;8.606;2023-12-29T13:29:54;0.80;;;0.60;;
21955;SDS011;11142;49.930;8.606;2023-12-29T13:32:22;2.38;;;0.80;;
21955;SDS011;11142;49.930;8.606;2023-12-29T13:34:56;6.25;;;1.15;;
21955;SDS011;11142;49.930;8.606;2023-12-29T13:37:33;2.13;;;0.85;;
21955;SDS011;11142;49.930;8.606;2023-12-29T13:40:24;2.10;;;0.75;;
21955;SDS011;11142;49.930;8.606;2023-12-29T13:42:57;3.28;;;0.98;;
21955;SDS011;11142;49.930;8.606;2023-12-29T13:45:32;1.90;;;0.75;;
21955;SDS011;11142;49.930;8.606;2023-12-29T13:48:00;1.20;;;0.80;;
21955;SDS011;11142;49.930;8.606;2023-12-29T13:50:30;1.65;;;0.80;;
21955;SDS011;11142;49.930;8.606;2023-12-29T13:52:59;2.42;;;0.80;;
21955;SDS011;11142;49.930;8.606;2023-12-29T13:55:28;0.85;;;0.80;;
21955;SDS011;11142;49.930;8.606;2023-12-29T13:57:58;3.55;;;1.02;;
21955;SDS011;11142;49.930;8.606;2023-12-29T14:00:27;1.48;;;0.70;;
21955;SDS011;11142;49.930;8.606;2023-12-29T14:03:05;2.88;;;1.00;;
21955;SDS011;11142;49.930;8.606;2023-12-29T14:05:39;1.60;;;0.80;;
21955;SDS011;11142;49.930;8.606;2023-12-29T14:08:17;1.73;;;0.70;;
21955;SDS011;11142;49.930;8.606;2023-12-29T14:10:51;3.10;;;1.00;;
21955;SDS011;11142;49.930;8.606;2023-12-29T14:13:22;1.50;;;0.82;;
21955;SDS011;11142;49.930;8.606;2023-12-29T14:15:51;1.42;;;0.90;;
21955;SDS011;11142;49.930;8.606;2023-12-29T14:21:28;1.75;;;0.88;;
21955;SDS011;11142;49.930;8.606;2023-12-29T14:23:59;2.97;;;1.23;;
21955;SDS011;11142;49.930;8.606;2023-12-29T14:26:35;5.78;;;0.93;;
21955;SDS011;11142;49.930;8.606;2023-12-29T14:29:07;1.02;;;0.82;;
21955;SDS011;11142;49.930;8.606;2023-12-29T14:31:37;2.28;;;1.20;;
21955;SDS011;11142;49.930;8.606;2023-12-29T14:34:12;1.70;;;0.90;;
21955;SDS011;11142;49.930;8.606;2023-12-29T14:36:42;6.23;;;1.30;;
21955;SDS011;11142;49.930;8.606;2023-12-29T14:39:11;3.85;;;0.82;;
21955;SDS011;11142;49.930;8.606;2023-12-29T14:41:41;0.90;;;0.77;;
21955;SDS011;11142;49.930;8.606;2023-12-29T14:44:10;2.40;;;1.15;;
21955;SDS011;11142;49.930;8.606;2023-12-29T14:46:39;5.07;;;1.10;;
21955;SDS011;11142;49.930;8.606;2023-12-29T14:49:11;7.90;;;0.77;;
21955;SDS011;11142;49.930;8.606;2023-12-29T14:51:40;0.93;;;0.70;;
21955;SDS011;11142;49.930;8.606;2023-12-29T14:54:09;2.15;;;0.90;;
21955;SDS011;11142;49.930;8.606;2023-12-29T14:56:38;2.03;;;0.70;;
21955;SDS011;11142;49.930;8.606;2023-12-29T14:59:09;4.20;;;1.10;;
21955;SDS011;11142;49.930;8.606;2023-12-29T15:01:42;0.60;;;0.60;;
21955;SDS011;11142;49.930;8.606;2023-12-29T15:04:13;1.15;;;0.80;;
21955;SDS011;11142;49.930;8.606;2023-12-29T15:06:43;2.92;;;0.90;;
21955;SDS011;11142;49.930;8.606;2023-12-29T15:09:12;4.18;;;0.80;;
21955;SDS011;11142;49.930;8.606;2023-12-29T15:11:42;1.25;;;0.80;;
21955;SDS011;11142;49.930;8.606;2023-12-29T15:14:12;5.97;;;1.08;;
21955;SDS011;11142;49.930;8.606;2023-12-29T15:22:46;3.55;;;0.90;;
21955;SDS011;11142;49.930;8.606;2023-12-29T15:25:22;2.08;;;1.13;;
21955;SDS011;11142;49.930;8.606;2023-12-29T15:27:53;2.97;;;0.85;;
21955;SDS011;11142;49.930;8.606;2023-12-29T15:30:24;2.15;;;1.10;;
21955;SDS011;11142;49.930;8.606;2023-12-29T15:32:53;5.93;;;1.20;;